Time;durP1;ratioP1;P1;durP2;ratioP2;P2;SDS_P1;SDS_P2;PMS_P1;PMS_P2;Temp;Humidity;BMP_temperature;BMP_pressure;BME280_temperature;BME280_humidity;BME280_pressure;Samples;Min_cycle;Max_cycle;Signal;HPM_P1;HPM_P2
2021/09/09 00:00:01;;;;;;;9.97;5.97;;;13.70;91.30;;;;;;2074381;28;20589;-64
2021/09/09 00:01:02;;;;;;;6.50;4.90;;;13.70;91.30;;;;;;2073333;28;20194;-65
2021/09/09 00:02:03;;;;;;;7.03;5.70;;;13.70;91.20;;;;;;2065836;28;20189;-66
2021/09/09 00:03:05;;;;;;;7.30;5.53;;;13.70;91.20;;;;;;2073743;28;20193;-64
2021/09/09 00:04:06;;;;;;;7.25;5.05;;;13.70;91.10;;;;;;2074266;28;20181;-64
2021/09/09 00:05:09;;;;;;;7.23;5.43;;;13.80;91.10;;;;;;2074237;28;20203;-64
2021/09/09 00:06:09;;;;;;;10.23;5.78;;;13.80;91.20;;;;;;2074107;28;20260;-64
2021/09/09 00:07:10;;;;;;;9.57;6.20;;;13.80;91.20;;;;;;2074291;28;20273;-64
2021/09/09 00:08:11;;;;;;;7.50;5.43;;;13.80;91.20;;;;;;2074574;28;20213;-67
2021/09/09 00:09:12;;;;;;;7.18;4.95;;;13.80;91.20;;;;;;2073582;28;20181;-64
2021/09/09 00:10:13;;;;;;;7.50;5.80;;;13.80;91.10;;;;;;2073875;28;20182;-67
2021/09/09 00:11:14;;;;;;;8.82;5.50;;;13.80;90.90;;;;;;2073896;28;20664;-66
2021/09/09 00:12:15;;;;;;;7.43;5.57;;;13.70;90.80;;;;;;2074368;28;20220;-66
2021/09/09 00:13:16;;;;;;;8.53;5.80;;;13.80;90.70;;;;;;2074434;28;20206;-66
2021/09/09 00:14:18;;;;;;;6.25;5.20;;;13.80;90.50;;;;;;2073611;28;20185;-66
2021/09/09 00:15:18;;;;;;;9.13;6.80;;;13.80;90.50;;;;;;2073817;28;20178;-66
2021/09/09 00:16:20;;;;;;;7.10;5.40;;;13.80;90.70;;;;;;2074234;28;20252;-66
2021/09/09 00:17:20;;;;;;;6.78;5.05;;;13.80;91.00;;;;;;2072925;28;20173;-71
2021/09/09 00:18:21;;;;;;;7.23;5.67;;;13.80;91.10;;;;;;2073726;28;20170;-71
2021/09/09 00:19:22;;;;;;;6.80;5.10;;;13.80;91.10;;;;;;2074369;28;20549;-71
2021/09/09 00:20:23;;;;;;;7.33;5.77;;;13.80;91.20;;;;;;2074316;28;20256;-71
2021/09/09 00:21:23;;;;;;;6.90;5.23;;;13.80;91.10;;;;;;2074045;28;20186;-71
2021/09/09 00:22:24;;;;;;;7.77;5.17;;;13.80;90.80;;;;;;2074236;28;20173;-71
2021/09/09 00:23:25;;;;;;;10.30;4.90;;;13.90;90.60;;;;;;2073650;28;20181;-72
2021/09/09 00:24:26;;;;;;;6.93;5.57;;;13.90;90.50;;;;;;2065441;28;20182;-65
2021/09/09 00:25:26;;;;;;;8.53;5.70;;;13.80;90.50;;;;;;2065364;28;20249;-65
2021/09/09 00:26:27;;;;;;;6.30;4.90;;;13.80;90.70;;;;;;2074168;28;20212;-65
2021/09/09 00:27:28;;;;;;;7.77;4.63;;;13.80;90.80;;;;;;2074342;28;20182;-64
2021/09/09 00:28:28;;;;;;;6.50;5.00;;;13.80;91.10;;;;;;2073627;28;20714;-65
2021/09/09 00:29:29;;;;;;;8.53;5.87;;;13.80;91.10;;;;;;2073726;28;20178;-65
2021/09/09 00:30:30;;;;;;;5.70;4.57;;;13.90;91.00;;;;;;2074034;28;20216;-65
2021/09/09 00:31:30;;;;;;;7.97;5.07;;;13.90;91.00;;;;;;2073845;28;20189;-65
2021/09/09 00:32:31;;;;;;;6.03;5.00;;;13.90;90.90;;;;;;2074234;28;20543;-65
2021/09/09 00:33:32;;;;;;;6.97;5.33;;;13.90;90.80;;;;;;2074181;28;20189;-66
2021/09/09 00:34:32;;;;;;;8.33;5.23;;;14.00;90.80;;;;;;2074069;28;20212;-65
2021/09/09 00:35:33;;;;;;;7.33;5.43;;;14.00;90.80;;;;;;2073880;28;20260;-66
2021/09/09 00:36:34;;;;;;;7.13;5.37;;;14.00;90.80;;;;;;2073665;28;20269;-65
2021/09/09 00:37:34;;;;;;;7.67;6.00;;;14.00;91.00;;;;;;2073845;28;20170;-65
2021/09/09 00:38:35;;;;;;;9.13;4.90;;;14.10;91.00;;;;;;2073799;28;20240;-67
2021/09/09 00:39:36;;;;;;;7.03;5.10;;;14.10;91.00;;;;;;2074139;28;20553;-66
2021/09/09 00:40:36;;;;;;;10.67;5.83;;;14.10;91.00;;;;;;2074119;28;20178;-65
2021/09/09 00:41:37;;;;;;;7.10;5.60;;;14.20;91.00;;;;;;2073679;28;20221;-64
2021/09/09 00:42:40;;;;;;;6.70;6.00;;;14.20;90.90;;;;;;2074037;28;20196;-66
2021/09/09 00:43:41;;;;;;;5.97;5.00;;;14.30;90.70;;;;;;2074063;28;20611;-65
2021/09/09 00:44:41;;;;;;;7.80;5.80;;;14.30;90.70;;;;;;2074105;28;20181;-67
2021/09/09 00:45:52;;;;;;;7.03;5.10;;;14.30;90.60;;;;;;2074037;28;20573;-65
2021/09/09 00:47:06;;;;;;;6.40;5.28;;;14.30;90.60;;;;;;2073983;28;20178;-64
2021/09/09 00:48:07;;;;;;;8.10;5.38;;;14.20;90.60;;;;;;2073380;28;20189;-65
2021/09/09 00:49:08;;;;;;;7.43;5.50;;;14.30;90.50;;;;;;2073384;28;20572;-65
2021/09/09 00:50:10;;;;;;;8.90;5.47;;;14.30;90.50;;;;;;2074234;28;20220;-65
2021/09/09 00:51:11;;;;;;;6.13;4.95;;;14.30;90.30;;;;;;2073090;28;20177;-64
2021/09/09 00:52:14;;;;;;;9.40;5.33;;;14.30;90.20;;;;;;2073328;28;20182;-64
2021/09/09 00:53:16;;;;;;;8.20;5.20;;;14.30;90.00;;;;;;2073380;28;20177;-65
2021/09/09 00:54:16;;;;;;;7.85;5.35;;;14.30;89.40;;;;;;2073387;28;20205;-65
2021/09/09 00:55:19;;;;;;;7.47;5.20;;;14.20;89.40;;;;;;2074240;28;20177;-65
2021/09/09 00:56:20;;;;;;;7.20;5.15;;;14.20;89.30;;;;;;2074002;28;20202;-66
2021/09/09 00:57:21;;;;;;;7.53;4.95;;;14.20;89.50;;;;;;2073961;28;20182;-65
2021/09/09 00:58:23;;;;;;;6.55;4.97;;;14.20;89.70;;;;;;2073789;28;20174;-66
2021/09/09 00:59:27;;;;;;;6.10;4.50;;;14.20;90.00;;;;;;2073147;28;20176;-65
2021/09/09 01:00:28;;;;;;;7.38;5.03;;;14.20;89.90;;;;;;2073528;28;20184;-65
2021/09/09 01:01:29;;;;;;;7.33;5.63;;;14.30;89.80;;;;;;2073483;28;20297;-65
2021/09/09 01:02:29;;;;;;;7.43;5.20;;;14.30;89.90;;;;;;2074078;28;20174;-65
2021/09/09 01:03:30;;;;;;;8.93;5.47;;;14.30;89.80;;;;;;2073786;28;20641;-66
2021/09/09 01:04:32;;;;;;;5.73;4.90;;;14.30;90.10;;;;;;2074010;28;20170;-65
2021/09/09 01:05:37;;;;;;;6.65;5.03;;;14.30;90.10;;;;;;2073751;28;20209;-65
2021/09/09 01:06:38;;;;;;;7.93;5.53;;;14.30;90.00;;;;;;2074054;28;20386;-65
2021/09/09 01:07:40;;;;;;;8.83;5.73;;;14.30;89.90;;;;;;2073881;28;20213;-65
2021/09/09 01:08:41;;;;;;;7.13;5.10;;;14.30;89.30;;;;;;2073021;28;20197;-64
2021/09/09 01:09:42;;;;;;;7.03;5.50;;;14.30;89.10;;;;;;2073257;28;20178;-65
2021/09/09 01:10:43;;;;;;;7.90;5.55;;;14.30;89.20;;;;;;2073178;28;20189;-65
2021/09/09 01:11:44;;;;;;;6.60;4.93;;;14.30;89.30;;;;;;2073072;28;20664;-64
2021/09/09 01:12:44;;;;;;;7.03;4.70;;;14.30;89.30;;;;;;2073941;28;20178;-65
2021/09/09 01:13:52;;;;;;;8.53;5.77;;;14.20;89.30;;;;;;2073636;28;20235;-64
2021/09/09 01:14:53;;;;;;;6.68;4.88;;;14.30;89.60;;;;;;2073188;28;20186;-65
2021/09/09 01:15:54;;;;;;;6.43;4.82;;;14.20;89.60;;;;;;2073183;28;20189;-65
2021/09/09 01:16:55;;;;;;;7.43;5.87;;;14.20;89.80;;;;;;2073870;28;20196;-65
2021/09/09 01:17:55;;;;;;;7.23;4.87;;;14.20;90.10;;;;;;2073821;28;20182;-65
2021/09/09 01:18:56;;;;;;;6.60;5.50;;;14.20;90.40;;;;;;2073708;28;20180;-64
2021/09/09 01:19:57;;;;;;;8.27;5.03;;;14.10;90.50;;;;;;2073561;28;20239;-66
2021/09/09 01:20:57;;;;;;;9.67;5.77;;;14.10;90.20;;;;;;2073568;28;20173;-65
2021/09/09 01:21:58;;;;;;;9.17;6.13;;;14.00;90.20;;;;;;2073556;28;20182;-64
2021/09/09 01:23:00;;;;;;;8.35;5.50;;;14.00;90.10;;;;;;2073155;28;20652;-65
2021/09/09 01:24:06;;;;;;;7.82;5.57;;;14.00;90.30;;;;;;2073171;28;20173;-65
2021/09/09 01:25:09;;;;;;;7.40;5.18;;;13.90;90.50;;;;;;2081137;28;20173;-64
2021/09/09 01:26:10;;;;;;;6.90;5.20;;;13.90;90.60;;;;;;2073193;28;20190;-65
2021/09/09 01:27:11;;;;;;;6.90;5.20;;;13.90;90.40;;;;;;2073190;28;20174;-66
2021/09/09 01:28:12;;;;;;;13.47;5.43;;;13.90;90.10;;;;;;2073783;28;20178;-65
2021/09/09 01:29:12;;;;;;;8.27;5.83;;;13.90;90.00;;;;;;2073712;28;20196;-65
2021/09/09 01:30:13;;;;;;;6.30;4.77;;;13.90;90.00;;;;;;2073699;28;20236;-66
2021/09/09 01:31:15;;;;;;;7.80;5.38;;;13.90;90.00;;;;;;2073407;28;20201;-65
2021/09/09 01:32:17;;;;;;;7.50;5.47;;;13.80;90.00;;;;;;2073687;28;20636;-65
2021/09/09 01:33:17;;;;;;;6.95;4.80;;;13.90;89.70;;;;;;2073718;28;20264;-65
2021/09/09 01:34:18;;;;;;;10.47;5.10;;;13.80;90.40;;;;;;2073683;28;20166;-65
2021/09/09 01:35:19;;;;;;;8.10;6.43;;;13.80;90.00;;;;;;2073496;28;20182;-65
2021/09/09 01:36:21;;;;;;;7.43;4.93;;;13.80;90.20;;;;;;2073760;28;20165;-64
2021/09/09 01:37:22;;;;;;;6.90;5.15;;;13.80;90.40;;;;;;2073686;28;20192;-65
2021/09/09 01:38:23;;;;;;;8.60;5.57;;;13.70;90.50;;;;;;2073805;28;20594;-66
2021/09/09 01:39:28;;;;;;;6.57;4.70;;;13.70;90.70;;;;;;2072986;28;20679;-64
2021/09/09 01:40:31;;;;;;;8.32;5.70;;;13.70;90.60;;;;;;2073175;28;20208;-64
2021/09/09 01:41:32;;;;;;;8.95;6.05;;;13.70;90.60;;;;;;2073312;28;20201;-65
2021/09/09 01:42:32;;;;;;;7.57;5.47;;;13.70;90.40;;;;;;2073025;28;20679;-64
2021/09/09 01:43:33;;;;;;;7.83;5.67;;;13.70;90.50;;;;;;2072958;28;20523;-66
2021/09/09 01:44:35;;;;;;;7.03;5.70;;;13.70;90.60;;;;;;2073576;28;20176;-65
2021/09/09 01:45:35;;;;;;;7.18;5.32;;;13.70;90.70;;;;;;2073492;28;20216;-65
2021/09/09 01:46:36;;;;;;;8.07;5.40;;;13.70;90.80;;;;;;2073532;28;20264;-64
2021/09/09 01:47:37;;;;;;;7.03;5.43;;;13.60;90.80;;;;;;2073673;28;20201;-64
2021/09/09 01:48:38;;;;;;;5.67;4.80;;;13.60;90.90;;;;;;2073136;28;20190;-65
2021/09/09 01:49:38;;;;;;;6.87;5.03;;;13.60;90.80;;;;;;2073118;28;20196;-65
2021/09/09 01:50:39;;;;;;;7.20;5.70;;;13.60;90.90;;;;;;2073018;28;20188;-65
2021/09/09 01:51:40;;;;;;;8.40;5.77;;;13.50;90.90;;;;;;2072624;28;20237;-65
2021/09/09 01:52:41;;;;;;;7.67;4.97;;;13.50;91.00;;;;;;2073680;28;20267;-65
2021/09/09 01:53:41;;;;;;;6.60;5.07;;;13.50;91.10;;;;;;2073518;28;20240;-66
2021/09/09 01:54:42;;;;;;;7.87;5.40;;;13.50;91.20;;;;;;2073236;28;20411;-66
2021/09/09 01:55:43;;;;;;;7.80;5.53;;;13.50;91.40;;;;;;2073020;28;20186;-64
2021/09/09 01:56:44;;;;;;;7.73;5.60;;;13.50;91.50;;;;;;2073644;28;20185;-66
2021/09/09 01:57:45;;;;;;;6.57;4.85;;;13.40;91.70;;;;;;2073500;28;20309;-64
2021/09/09 01:58:45;;;;;;;8.53;6.10;;;13.40;91.70;;;;;;2073552;28;20774;-65
2021/09/09 01:59:46;;;;;;;10.33;5.70;;;13.40;91.90;;;;;;2073443;28;20193;-65
2021/09/09 02:00:47;;;;;;;7.60;5.70;;;13.40;91.80;;;;;;2073504;28;20640;-65
2021/09/09 02:01:47;;;;;;;9.33;5.90;;;13.30;91.80;;;;;;2073132;28;20404;-66
2021/09/09 02:02:48;;;;;;;6.80;5.77;;;13.40;91.80;;;;;;2073505;28;20188;-66
2021/09/09 02:03:49;;;;;;;10.20;6.17;;;13.40;91.90;;;;;;2073448;28;20177;-65
2021/09/09 02:04:50;;;;;;;10.70;5.80;;;13.40;92.00;;;;;;2073833;28;20182;-65
2021/09/09 02:05:50;;;;;;;8.83;5.90;;;13.40;91.80;;;;;;2072813;28;20279;-65
2021/09/09 02:06:51;;;;;;;6.40;4.90;;;13.40;91.80;;;;;;2072863;28;20185;-65
2021/09/09 02:07:52;;;;;;;7.40;5.37;;;13.40;91.80;;;;;;2073434;28;20200;-65
2021/09/09 02:08:53;;;;;;;9.27;5.73;;;13.40;91.70;;;;;;2073428;28;20652;-65
2021/09/09 02:09:53;;;;;;;8.77;5.97;;;13.40;91.90;;;;;;2073556;28;20174;-64
2021/09/09 02:10:54;;;;;;;7.90;5.60;;;13.40;91.80;;;;;;2073449;28;20260;-65
2021/09/09 02:11:55;;;;;;;7.17;5.63;;;13.40;91.70;;;;;;2073246;28;20659;-65
2021/09/09 02:12:55;;;;;;;6.60;5.40;;;13.40;91.70;;;;;;2072868;28;20272;-65
2021/09/09 02:13:56;;;;;;;7.87;5.50;;;13.40;91.60;;;;;;2072873;28;20268;-65
2021/09/09 02:14:57;;;;;;;8.07;6.27;;;13.40;91.70;;;;;;2073509;28;20260;-65
2021/09/09 02:15:57;;;;;;;8.27;6.17;;;13.30;91.80;;;;;;2073545;28;20268;-65
2021/09/09 02:16:58;;;;;;;7.67;5.60;;;13.40;91.70;;;;;;2073468;28;20261;-66
2021/09/09 02:17:59;;;;;;;8.10;5.80;;;13.30;91.70;;;;;;2073547;28;20652;-65
2021/09/09 02:18:59;;;;;;;7.30;5.90;;;13.30;91.70;;;;;;2064738;28;20194;-64
2021/09/09 02:20:00;;;;;;;8.57;6.23;;;13.20;91.70;;;;;;2065266;28;20191;-66
2021/09/09 02:21:01;;;;;;;8.67;5.23;;;13.20;91.70;;;;;;2065042;28;20187;-65
2021/09/09 02:22:03;;;;;;;9.63;6.20;;;13.20;91.50;;;;;;2065219;28;20233;-64
2021/09/09 02:23:04;;;;;;;7.43;5.22;;;13.20;91.60;;;;;;2065165;28;20660;-65
2021/09/09 02:24:05;;;;;;;10.47;6.37;;;13.10;91.90;;;;;;2065251;28;20190;-65
2021/09/09 02:25:06;;;;;;;7.27;5.57;;;13.10;92.30;;;;;;2065277;28;20179;-64
2021/09/09 02:26:07;;;;;;;9.48;5.57;;;13.10;92.50;;;;;;2065336;28;20194;-65
2021/09/09 02:27:07;;;;;;;6.37;5.07;;;13.10;92.30;;;;;;2065243;28;20206;-65
2021/09/09 02:28:08;;;;;;;8.67;5.57;;;13.10;92.00;;;;;;2065338;28;20170;-66
2021/09/09 02:29:09;;;;;;;7.13;5.47;;;13.10;91.70;;;;;;2065563;28;20186;-65
2021/09/09 02:30:11;;;;;;;6.60;5.20;;;13.10;91.50;;;;;;2065370;28;20261;-65
2021/09/09 02:31:11;;;;;;;7.15;5.05;;;13.10;91.30;;;;;;2064944;28;20182;-65
2021/09/09 02:32:12;;;;;;;8.00;5.30;;;13.00;91.30;;;;;;2065528;28;20187;-64
2021/09/09 02:33:13;;;;;;;6.60;5.33;;;13.00;91.20;;;;;;2065246;28;20206;-66
2021/09/09 02:34:13;;;;;;;8.00;5.40;;;13.00;91.20;;;;;;2065322;28;20265;-65
2021/09/09 02:35:14;;;;;;;6.97;4.87;;;13.00;91.30;;;;;;2065107;28;20170;-65
2021/09/09 02:36:15;;;;;;;7.33;5.50;;;13.00;91.30;;;;;;2065338;28;20186;-65
2021/09/09 02:37:15;;;;;;;8.57;5.87;;;12.90;91.20;;;;;;2065351;28;20186;-64
2021/09/09 02:38:16;;;;;;;11.60;6.00;;;12.90;91.30;;;;;;2065213;28;20178;-65
2021/09/09 02:39:17;;;;;;;7.07;5.47;;;12.90;91.20;;;;;;2065330;28;20185;-65
2021/09/09 02:40:17;;;;;;;6.17;5.13;;;12.90;91.30;;;;;;2065185;28;20256;-64
2021/09/09 02:41:18;;;;;;;7.87;5.23;;;12.90;91.30;;;;;;2066728;28;20688;-64
2021/09/09 02:42:19;;;;;;;9.17;5.63;;;12.80;91.70;;;;;;2066914;28;20178;-65
2021/09/09 02:43:20;;;;;;;7.97;5.40;;;12.80;92.10;;;;;;2066938;28;20540;-65
2021/09/09 02:44:20;;;;;;;7.90;5.97;;;12.80;92.20;;;;;;2066908;28;20221;-65
2021/09/09 02:45:21;;;;;;;7.43;5.63;;;12.80;92.10;;;;;;2066798;28;20641;-65
2021/09/09 02:46:22;;;;;;;6.63;5.27;;;12.80;92.20;;;;;;2066649;28;20253;-64
2021/09/09 02:47:22;;;;;;;8.93;6.67;;;12.70;92.20;;;;;;2066991;28;20189;-64
2021/09/09 02:48:23;;;;;;;9.37;5.90;;;12.80;92.20;;;;;;2067001;28;20170;-65
2021/09/09 02:49:24;;;;;;;6.87;5.20;;;12.70;92.00;;;;;;2067112;28;20201;-65
2021/09/09 02:50:24;;;;;;;7.77;6.07;;;12.80;92.10;;;;;;2066824;28;20179;-64
2021/09/09 02:51:25;;;;;;;7.20;5.83;;;12.80;92.10;;;;;;2066628;28;20186;-65
2021/09/09 02:52:27;;;;;;;7.13;5.40;;;12.70;92.10;;;;;;2066974;28;20529;-65
2021/09/09 02:53:28;;;;;;;7.63;5.75;;;12.80;92.10;;;;;;2066891;28;20689;-64
2021/09/09 02:54:28;;;;;;;7.73;5.90;;;12.80;92.70;;;;;;2067272;28;20179;-65
2021/09/09 02:55:29;;;;;;;8.17;6.57;;;12.80;92.10;;;;;;2067043;28;20182;-67
2021/09/09 02:56:31;;;;;;;8.50;6.20;;;12.80;92.10;;;;;;2066884;28;20583;-65
2021/09/09 02:57:32;;;;;;;8.35;6.20;;;12.80;92.10;;;;;;2066080;28;20182;-64
2021/09/09 02:58:33;;;;;;;8.30;6.20;;;12.80;92.10;;;;;;2066365;28;20186;-65
2021/09/09 02:59:34;;;;;;;9.40;6.13;;;12.80;92.10;;;;;;2067055;28;20174;-65
2021/09/09 03:00:34;;;;;;;7.93;6.00;;;12.80;92.10;;;;;;2066945;28;20182;-65
2021/09/09 03:01:35;;;;;;;11.33;6.10;;;12.70;92.30;;;;;;2066591;28;20206;-65
2021/09/09 03:02:36;;;;;;;8.47;6.10;;;12.70;92.20;;;;;;2066588;28;20269;-65
2021/09/09 03:03:37;;;;;;;8.80;6.50;;;12.70;92.10;;;;;;2067116;28;20265;-64
2021/09/09 03:04:37;;;;;;;8.00;5.70;;;12.70;92.20;;;;;;2066801;28;20182;-65
2021/09/09 03:05:38;;;;;;;7.20;6.03;;;12.60;92.40;;;;;;2066892;28;20210;-64
2021/09/09 03:06:39;;;;;;;9.43;5.70;;;12.60;92.40;;;;;;2066899;28;20579;-65
2021/09/09 03:07:40;;;;;;;8.23;6.13;;;12.60;92.50;;;;;;2066743;28;20182;-66
2021/09/09 03:08:40;;;;;;;10.20;6.82;;;12.60;92.60;;;;;;2066892;28;20232;-65
2021/09/09 03:09:41;;;;;;;9.53;6.13;;;12.50;92.80;;;;;;2067042;28;20232;-64
2021/09/09 03:10:42;;;;;;;9.23;5.90;;;12.50;92.80;;;;;;2066890;28;20653;-64
2021/09/09 03:11:42;;;;;;;6.93;5.30;;;12.50;92.90;;;;;;2066801;28;20210;-64
2021/09/09 03:12:43;;;;;;;8.37;6.27;;;12.50;92.90;;;;;;2066720;28;20182;-65
2021/09/09 03:13:44;;;;;;;9.83;5.93;;;12.50;92.80;;;;;;2066914;28;20177;-65
2021/09/09 03:14:44;;;;;;;9.67;5.80;;;12.50;92.70;;;;;;2066747;28;20181;-65
2021/09/09 03:15:45;;;;;;;11.10;5.60;;;12.50;92.60;;;;;;2066895;28;20854;-64
2021/09/09 03:16:46;;;;;;;6.77;5.23;;;12.40;92.60;;;;;;2066735;28;20193;-65
2021/09/09 03:17:46;;;;;;;9.77;5.50;;;12.50;92.50;;;;;;2066993;28;20290;-64
2021/09/09 03:18:47;;;;;;;10.23;5.90;;;12.40;92.40;;;;;;2066697;28;20186;-64
2021/09/09 03:19:49;;;;;;;9.50;6.13;;;12.40;92.50;;;;;;2066819;28;20206;-65
2021/09/09 03:20:49;;;;;;;7.82;5.45;;;12.40;92.40;;;;;;2066821;28;20201;-64
2021/09/09 03:21:50;;;;;;;7.87;6.17;;;12.40;92.50;;;;;;2066672;28;20225;-66
2021/09/09 03:22:51;;;;;;;6.97;5.20;;;12.40;92.50;;;;;;2066507;28;20257;-64
2021/09/09 03:23:51;;;;;;;11.33;6.03;;;12.40;92.50;;;;;;2066309;28;20303;-64
2021/09/09 03:24:52;;;;;;;9.57;6.83;;;12.40;92.70;;;;;;2066442;28;20655;-65
2021/09/09 03:25:53;;;;;;;8.37;5.97;;;12.40;92.80;;;;;;2066321;28;20217;-64
2021/09/09 03:26:54;;;;;;;8.43;5.43;;;12.40;92.80;;;;;;2066433;28;20257;-65
2021/09/09 03:27:54;;;;;;;7.63;5.90;;;12.40;92.70;;;;;;2066318;28;20178;-65
2021/09/09 03:28:55;;;;;;;7.73;5.97;;;12.40;92.70;;;;;;2066224;28;20174;-64
2021/09/09 03:29:56;;;;;;;7.73;5.67;;;12.40;92.70;;;;;;2066303;28;20175;-65
2021/09/09 03:30:57;;;;;;;7.80;5.23;;;12.40;92.50;;;;;;2066436;28;20234;-65
2021/09/09 03:31:57;;;;;;;8.23;5.73;;;12.40;92.40;;;;;;2066166;28;20226;-64
2021/09/09 03:32:58;;;;;;;8.20;6.33;;;12.40;92.30;;;;;;2066654;28;20546;-67
2021/09/09 03:33:59;;;;;;;8.83;6.17;;;12.40;92.20;;;;;;2066816;28;20178;-65
2021/09/09 03:34:59;;;;;;;7.50;5.97;;;12.40;92.30;;;;;;2066452;28;20181;-64
2021/09/09 03:36:00;;;;;;;7.53;5.97;;;12.40;92.30;;;;;;2066658;28;20237;-65
2021/09/09 03:37:01;;;;;;;7.50;5.70;;;12.40;92.30;;;;;;2066615;28;20637;-64
2021/09/09 03:38:01;;;;;;;9.87;6.70;;;12.40;92.30;;;;;;2066540;28;20203;-65
2021/09/09 03:39:03;;;;;;;9.57;6.93;;;12.40;92.10;;;;;;2066342;28;20378;-67
2021/09/09 03:40:04;;;;;;;7.93;5.47;;;12.50;92.10;;;;;;2066093;28;20190;-64
2021/09/09 03:41:05;;;;;;;7.50;5.72;;;12.40;92.10;;;;;;2065912;28;20183;-64
2021/09/09 03:42:06;;;;;;;7.30;5.53;;;12.40;92.00;;;;;;2066184;28;20189;-64
2021/09/09 03:43:06;;;;;;;7.00;4.97;;;12.40;91.80;;;;;;2066247;28;20209;-65
2021/09/09 03:44:07;;;;;;;7.37;5.47;;;12.40;91.90;;;;;;2066193;28;20281;-65
2021/09/09 03:45:09;;;;;;;7.70;5.97;;;12.40;91.80;;;;;;2066059;28;20178;-64
2021/09/09 03:46:09;;;;;;;6.38;4.63;;;12.40;91.80;;;;;;2066232;28;20182;-65
2021/09/09 03:47:10;;;;;;;7.13;5.33;;;12.40;91.50;;;;;;2066305;28;20630;-64
2021/09/09 03:48:11;;;;;;;7.93;5.53;;;12.50;91.50;;;;;;2066239;28;20215;-65
2021/09/09 03:49:11;;;;;;;8.23;5.50;;;12.40;91.50;;;;;;2066256;28;20187;-65
2021/09/09 03:50:12;;;;;;;6.07;4.93;;;12.50;91.40;;;;;;2066341;28;20763;-66
2021/09/09 03:51:13;;;;;;;6.20;4.87;;;12.50;91.20;;;;;;2065752;28;20228;-66
2021/09/09 03:52:13;;;;;;;7.17;5.17;;;12.50;91.60;;;;;;2064931;28;20229;-64
2021/09/09 03:53:14;;;;;;;5.73;4.47;;;12.50;91.00;;;;;;2066186;28;20187;-65
2021/09/09 03:54:15;;;;;;;8.57;4.97;;;12.50;90.90;;;;;;2066237;28;20202;-66
2021/09/09 03:55:16;;;;;;;7.07;5.70;;;12.50;91.30;;;;;;2066276;28;20629;-67
2021/09/09 03:56:17;;;;;;;6.88;5.13;;;12.50;91.10;;;;;;2065977;28;20186;-66
2021/09/09 03:57:17;;;;;;;6.40;4.93;;;12.50;91.00;;;;;;2066173;28;20182;-65
2021/09/09 03:58:18;;;;;;;8.70;5.70;;;12.50;91.00;;;;;;2066173;28;20842;-65
2021/09/09 03:59:19;;;;;;;8.38;6.32;;;12.50;91.00;;;;;;2066141;28;20656;-65
2021/09/09 04:00:20;;;;;;;7.40;5.70;;;12.40;91.10;;;;;;2066126;28;20181;-64
2021/09/09 04:01:20;;;;;;;8.30;5.63;;;12.50;91.20;;;;;;2065656;28;20665;-65
2021/09/09 04:02:21;;;;;;;6.60;5.27;;;12.50;91.40;;;;;;2066095;28;20182;-66
2021/09/09 04:03:22;;;;;;;7.73;5.63;;;12.50;91.40;;;;;;2066009;28;20248;-65
2021/09/09 04:04:22;;;;;;;7.13;6.17;;;12.50;91.50;;;;;;2066210;28;20186;-64
2021/09/09 04:05:23;;;;;;;8.50;6.10;;;12.50;91.50;;;;;;2065914;28;20178;-65
2021/09/09 04:06:24;;;;;;;7.27;5.23;;;12.50;91.60;;;;;;2066051;28;20186;-66
2021/09/09 04:07:24;;;;;;;7.73;5.53;;;12.50;91.70;;;;;;2065912;28;20171;-64
2021/09/09 04:08:25;;;;;;;10.00;5.93;;;12.50;91.70;;;;;;2066070;28;20294;-64
2021/09/09 04:09:26;;;;;;;9.53;6.30;;;12.50;91.80;;;;;;2065981;28;20258;-66
2021/09/09 04:10:27;;;;;;;9.03;5.87;;;12.60;91.70;;;;;;2066156;28;20205;-65
2021/09/09 04:11:27;;;;;;;9.93;6.47;;;12.60;91.60;;;;;;2065526;28;20194;-66
2021/09/09 04:12:28;;;;;;;10.53;6.33;;;12.60;91.80;;;;;;2065937;28;20186;-64
2021/09/09 04:13:29;;;;;;;8.40;6.27;;;12.60;91.70;;;;;;2065964;28;20257;-65
2021/09/09 04:14:30;;;;;;;9.90;6.70;;;12.70;91.80;;;;;;2066146;28;20265;-65
2021/09/09 04:15:32;;;;;;;9.57;6.40;;;12.70;91.90;;;;;;2065322;28;20555;-65
2021/09/09 04:16:33;;;;;;;8.75;7.18;;;12.60;92.10;;;;;;2065461;28;20186;-65
2021/09/09 04:17:34;;;;;;;10.27;7.17;;;12.60;92.30;;;;;;2065858;28;20214;-66
2021/09/09 04:18:35;;;;;;;9.57;6.80;;;12.60;92.60;;;;;;2066089;28;20190;-64
2021/09/09 04:19:36;;;;;;;8.87;6.60;;;12.60;92.60;;;;;;2065917;28;20270;-66
2021/09/09 04:20:37;;;;;;;8.47;6.03;;;12.60;92.70;;;;;;2065971;28;20182;-65
2021/09/09 04:21:37;;;;;;;8.97;6.17;;;12.60;92.60;;;;;;2065586;28;20205;-65
2021/09/09 04:22:38;;;;;;;9.43;6.97;;;12.60;92.60;;;;;;2065977;28;20193;-65
2021/09/09 04:23:39;;;;;;;9.53;6.50;;;12.60;92.60;;;;;;2065822;28;21323;-64
2021/09/09 04:24:40;;;;;;;10.57;6.90;;;12.60;92.80;;;;;;2065970;28;20688;-66
2021/09/09 04:25:41;;;;;;;10.82;8.10;;;12.60;93.10;;;;;;2065885;28;20217;-64
2021/09/09 04:26:42;;;;;;;9.37;7.00;;;12.60;93.20;;;;;;2065984;28;20185;-66
2021/09/09 04:27:43;;;;;;;10.93;6.97;;;12.60;93.20;;;;;;2065275;28;20269;-64
2021/09/09 04:28:43;;;;;;;11.60;7.10;;;12.70;93.30;;;;;;2065219;28;20178;-65
2021/09/09 04:29:44;;;;;;;10.70;7.63;;;12.70;93.80;;;;;;2065807;28;20178;-64
2021/09/09 04:30:45;;;;;;;12.60;7.30;;;12.70;93.40;;;;;;2065955;28;20696;-64
2021/09/09 04:31:45;;;;;;;10.90;6.67;;;12.70;93.40;;;;;;2065618;28;20229;-66
2021/09/09 04:32:46;;;;;;;10.70;6.90;;;12.70;93.30;;;;;;2065973;28;20182;-65
2021/09/09 04:33:47;;;;;;;7.90;6.13;;;12.80;93.30;;;;;;2065669;28;20189;-64
2021/09/09 04:34:48;;;;;;;10.63;7.03;;;12.80;93.30;;;;;;2065872;28;20182;-66
2021/09/09 04:35:48;;;;;;;6.93;5.72;;;12.80;93.30;;;;;;2065825;28;20187;-65
2021/09/09 04:36:49;;;;;;;9.77;7.10;;;12.80;93.20;;;;;;2065843;28;20548;-64
2021/09/09 04:37:50;;;;;;;8.40;6.63;;;12.70;93.20;;;;;;2065788;28;20193;-65
2021/09/09 04:38:51;;;;;;;9.67;6.53;;;12.80;93.10;;;;;;2065857;28;20175;-65
2021/09/09 04:39:51;;;;;;;10.67;6.70;;;12.80;93.00;;;;;;2065848;28;20182;-66
2021/09/09 04:40:52;;;;;;;11.10;7.07;;;12.80;92.90;;;;;;2065693;28;20538;-66
2021/09/09 04:41:53;;;;;;;8.00;6.17;;;12.80;93.00;;;;;;2065568;28;20217;-65
2021/09/09 04:42:53;;;;;;;8.10;6.20;;;12.90;92.90;;;;;;2065823;28;20193;-64
2021/09/09 04:43:54;;;;;;;10.97;6.57;;;12.90;92.60;;;;;;2065809;28;20182;-65
2021/09/09 04:44:55;;;;;;;10.47;6.30;;;12.90;92.70;;;;;;2065706;28;20190;-64
2021/09/09 04:45:55;;;;;;;10.20;6.80;;;12.90;92.60;;;;;;2065756;28;20688;-64
2021/09/09 04:46:56;;;;;;;10.13;5.73;;;12.90;92.70;;;;;;2065747;28;20182;-65
2021/09/09 04:50:12;;;;;;;9.23;6.63;;;12.90;92.70;;;;;;2063560;28;20175;-64
2021/09/09 04:51:13;;;;;;;8.07;6.30;;;12.90;92.90;;;;;;2065409;28;20174;-64
2021/09/09 04:52:14;;;;;;;11.23;7.20;;;12.90;92.90;;;;;;2065585;28;20245;-64
2021/09/09 04:53:15;;;;;;;9.27;6.40;;;12.90;92.90;;;;;;2065677;28;20181;-64
2021/09/09 04:54:16;;;;;;;9.20;6.13;;;12.90;92.80;;;;;;2065679;28;20174;-65
2021/09/09 04:55:16;;;;;;;12.17;6.30;;;13.00;92.80;;;;;;2065566;28;20174;-65
2021/09/09 04:56:17;;;;;;;10.20;7.30;;;13.00;92.70;;;;;;2065571;28;20524;-64
2021/09/09 04:57:18;;;;;;;8.73;6.30;;;13.00;92.70;;;;;;2065852;28;20595;-64
2021/09/09 04:58:18;;;;;;;7.73;5.80;;;13.00;92.60;;;;;;2065748;28;20179;-66
2021/09/09 04:59:19;;;;;;;9.07;7.00;;;13.00;92.50;;;;;;2065695;28;20182;-65
2021/09/09 05:00:20;;;;;;;8.27;6.30;;;13.10;92.40;;;;;;2065846;28;20178;-64
2021/09/09 05:01:21;;;;;;;7.37;6.17;;;13.10;92.30;;;;;;2065167;28;20563;-64
2021/09/09 05:02:21;;;;;;;11.53;6.77;;;13.10;92.30;;;;;;2065670;28;20420;-64
2021/09/09 05:03:22;;;;;;;14.10;7.37;;;13.10;92.30;;;;;;2065247;28;20238;-66
2021/09/09 05:04:23;;;;;;;17.37;6.63;;;13.00;92.30;;;;;;2065670;28;20183;-65
2021/09/09 05:05:23;;;;;;;15.50;7.57;;;13.00;92.30;;;;;;2065503;28;20178;-64
2021/09/09 05:06:24;;;;;;;12.80;7.60;;;13.00;92.00;;;;;;2065794;28;20570;-64
2021/09/09 05:07:25;;;;;;;9.57;6.23;;;13.00;92.00;;;;;;2065609;28;20178;-65
2021/09/09 05:08:26;;;;;;;12.63;6.50;;;13.00;92.10;;;;;;2065624;28;20229;-64
2021/09/09 05:09:26;;;;;;;8.87;6.20;;;13.00;92.10;;;;;;2065699;28;20202;-66
2021/09/09 05:10:27;;;;;;;11.20;6.67;;;13.10;92.00;;;;;;2065565;28;20641;-65
2021/09/09 05:11:28;;;;;;;8.50;5.67;;;13.10;92.20;;;;;;2065098;28;20194;-64
2021/09/09 05:12:29;;;;;;;8.80;6.33;;;13.10;92.00;;;;;;2065637;28;20225;-66
2021/09/09 05:13:29;;;;;;;9.70;6.03;;;13.10;91.60;;;;;;2065564;28;20261;-64
2021/09/09 05:14:30;;;;;;;8.77;6.60;;;13.10;91.50;;;;;;2065647;28;20182;-64
2021/09/09 05:15:31;;;;;;;8.80;6.40;;;13.10;91.50;;;;;;2065511;28;20183;-65
2021/09/09 05:16:31;;;;;;;10.33;6.97;;;13.00;91.80;;;;;;2065577;28;20270;-64
2021/09/09 05:17:32;;;;;;;6.83;5.13;;;13.00;92.00;;;;;;2065388;28;20181;-65
2021/09/09 05:18:33;;;;;;;7.87;5.37;;;13.00;92.10;;;;;;2065551;28;20186;-65